aviador You're here:

KMIC Decoded Metar

MNPLS/CRYSTAL in MN, USA
Report Time2017-12-16 10:25:00
UTC Time2017-12-16 10:55:54
Flight Rules vfr VFR
Wind060° at 05 kt
W.Decomp.*RWY 06: 5.0 kt HW 0.2 kt LCW
RWY 14: 0.7 kt HW 5 kt LCW
W.Rank060° ranks 35
Current wind is below 060° avg. (5.9)
Visibility9999 m
Phenomena:N/A
Clouds:Few 007 Hf
Broken 065 Hf
Expected CloudBase > 1,200 ft AGL from Temp-Dew spread
Ceiling6,500 ft
Temp-3°C (ISA -16)
Dew Point-6°C (80% RH)
AAT-7.5°C
QNH1005 hPa
Density Alt-797 ft
Elevation869 ft
Report Wrong Elevation
Raw Report
KMIC 161025Z AUTO 06005KT 8SM FEW007 BKN065 M03/M06 A2968 RMK AO2
T10331061 TSNO=

Extra information for KMIC:More info

Metar Taf Metar & Taf Last 4 Metars F.Rules Stats Wind Profile Meteogram Temp Stats Airport Information Weather charts Add Link Nearby VenuesMetar ALERT Operation Metar Decoded Social comments

AIRNAV info for KMIC